Time;durP1;ratioP1;P1;durP2;ratioP2;P2;SDS_P1;SDS_P2;PMS_P1;PMS_P2;Temp;Humidity;BMP_temperature;BMP_pressure;BME280_temperature;BME280_humidity;BME280_pressure;Samples;Min_cycle;Max_cycle;Signal;HPM_P1;HPM_P2
2023/12/18 00:01:51;;;;;;;14.30;7.50;;;;;;;-1.56;100.00;145876.84;5026022;28;20746;-55
2023/12/18 00:04:19;;;;;;;13.03;7.80;;;;;;;-1.53;100.00;145884.25;5023594;28;20219;-56
2023/12/18 00:06:47;;;;;;;12.33;7.57;;;;;;;-1.56;100.00;145876.84;5026037;28;20660;-55
2023/12/18 00:09:14;;;;;;;12.93;6.83;;;;;;;-1.57;100.00;145875.56;5023652;28;20227;-56
2023/12/18 00:11:40;;;;;;;13.03;7.20;;;;;;;-1.63;100.00;145862.00;5025897;28;20235;-56
2023/12/18 00:14:07;;;;;;;13.40;7.60;;;;;;;-1.63;100.00;145860.81;5022629;28;20235;-56
2023/12/18 00:16:34;;;;;;;11.90;7.07;;;;;;;-1.63;100.00;145862.00;5025180;28;20648;-56
2023/12/18 00:19:00;;;;;;;12.43;6.90;;;;;;;-1.64;100.00;145859.56;5022785;28;20238;-56
2023/12/18 00:21:27;;;;;;;12.50;7.23;;;;;;;-1.65;100.00;145857.09;5019379;28;20741;-56
2023/12/18 00:23:55;;;;;;;12.63;6.43;;;;;;;-1.51;100.00;145889.19;5024335;28;20223;-56
2023/12/18 00:26:23;;;;;;;12.20;6.30;;;;;;;-1.46;100.00;145901.53;5014905;28;20700;-55
2023/12/18 00:28:49;;;;;;;12.97;6.80;;;;;;;-1.52;100.00;145886.72;5018274;28;20781;-56
2023/12/18 00:31:16;;;;;;;11.80;6.57;;;;;;;-1.51;100.00;145889.19;5022115;28;20240;-56
2023/12/18 00:33:43;;;;;;;15.97;7.70;;;;;;;-1.51;100.00;145889.19;5025901;28;20743;-56
2023/12/18 00:36:09;;;;;;;10.47;6.00;;;;;;;-1.50;100.00;145891.66;5022259;28;20613;-55
2023/12/18 00:38:37;;;;;;;10.13;5.50;;;;;;;-1.45;100.00;145904.00;5026486;28;20223;-56
2023/12/18 00:41:05;;;;;;;9.67;5.30;;;;;;;-1.50;100.00;145891.66;5022614;28;20237;-56
2023/12/18 00:43:32;;;;;;;11.23;5.30;;;;;;;-1.53;100.00;145885.47;5025919;28;20713;-56
2023/12/18 00:45:58;;;;;;;10.57;5.20;;;;;;;-1.55;100.00;145879.31;5024804;28;20554;-55
2023/12/18 00:48:25;;;;;;;9.43;4.53;;;;;;;-1.53;100.00;145885.47;5015645;28;20250;-56
2023/12/18 00:50:51;;;;;;;6.73;4.23;;;;;;;-1.48;100.00;145896.59;5025582;28;20225;-55
2023/12/18 00:53:18;;;;;;;9.33;5.23;;;;;;;-1.51;100.00;145889.19;5021679;28;20234;-55
2023/12/18 00:55:45;;;;;;;8.20;5.00;;;;;;;-1.48;100.00;145897.81;5025500;28;20231;-53
2023/12/18 00:58:13;;;;;;;7.63;4.30;;;;;;;-1.46;100.00;145900.28;5022000;28;20583;-55
2023/12/18 01:00:39;;;;;;;7.97;4.73;;;;;;;-1.47;100.00;145899.06;5016388;28;20786;-56
2023/12/18 01:03:06;;;;;;;8.33;4.20;;;;;;;-1.53;100.00;145885.47;5023104;28;20222;-54
2023/12/18 01:05:33;;;;;;;6.87;4.10;;;;;;;-1.55;100.00;145879.31;5025679;28;20227;-53
2023/12/18 01:07:59;;;;;;;6.80;4.13;;;;;;;-1.57;100.00;145875.56;5016118;28;20235;-55
2023/12/18 01:10:26;;;;;;;7.60;4.67;;;;;;;-1.47;100.00;145899.06;5023646;28;20281;-53
2023/12/18 01:12:53;;;;;;;5.77;3.60;;;;;;;-1.42;100.00;145910.16;5025282;28;20270;-53
2023/12/18 01:15:21;;;;;;;7.20;4.07;;;;;;;-1.46;100.00;145900.28;5013400;28;20232;-56
2023/12/18 01:17:47;;;;;;;6.33;3.27;;;;;;;-1.41;100.00;145912.63;5023402;28;20717;-56
2023/12/18 01:20:14;;;;;;;6.57;3.80;;;;;;;-1.43;100.00;145908.94;5021344;28;20218;-56
2023/12/18 01:22:40;;;;;;;6.43;3.40;;;;;;;-1.46;100.00;145901.53;5024196;28;20234;-54
2023/12/18 01:25:08;;;;;;;7.80;3.53;;;;;;;-1.52;100.00;145887.91;5022680;28;20236;-55
2023/12/18 01:27:34;;;;;;;5.87;3.50;;;;;;;-1.55;100.00;145880.50;5025125;28;20230;-53
2023/12/18 01:30:01;;;;;;;7.33;3.60;;;;;;;-1.49;100.00;145894.13;5022733;28;20594;-56
2023/12/18 01:32:31;;;;;;;7.07;3.37;;;;;;;-1.51;100.00;145890.41;5010308;28;20230;-53
2023/12/18 01:34:58;;;;;;;7.07;3.23;;;;;;;-1.44;100.00;145905.22;5025245;28;20224;-53
2023/12/18 01:37:25;;;;;;;4.63;2.97;;;;;;;-1.35;100.00;145928.69;5020676;28;20218;-56
2023/12/18 01:39:51;;;;;;;5.97;3.10;;;;;;;-1.39;100.00;145918.81;5024065;28;20226;-56
2023/12/18 01:42:18;;;;;;;5.43;3.40;;;;;;;-1.45;100.00;145904.00;5003830;28;20235;-55
2023/12/18 01:44:50;;;;;;;7.37;3.10;;;;;;;-1.49;100.00;145895.34;5020021;28;20289;-56
2023/12/18 01:47:17;;;;;;;5.03;2.77;;;;;;;-1.44;100.00;145905.22;4926595;28;20286;-54
2023/12/18 01:49:46;;;;;;;6.73;3.70;;;;;;;-1.44;100.00;145905.22;4977091;28;20694;-56
2023/12/18 01:52:13;;;;;;;6.00;3.63;;;;;;;-1.40;100.00;145916.34;5015036;28;20236;-56
2023/12/18 01:54:41;;;;;;;7.03;3.10;;;;;;;-1.40;100.00;145916.34;5007725;28;20597;-53
2023/12/18 01:57:08;;;;;;;6.63;3.40;;;;;;;-1.37;100.00;145922.50;4956766;28;20226;-53
2023/12/18 02:02:20;;;;;;;6.07;3.30;;;;;;;-1.46;100.00;145901.53;5004568;23;20280;-54
2023/12/18 02:04:48;;;;;;;6.57;3.40;;;;;;;-1.50;100.00;145892.88;5020936;28;20226;-51
2023/12/18 02:07:15;;;;;;;7.13;3.80;;;;;;;-1.52;100.00;145887.91;4973941;28;20436;-52
2023/12/18 02:09:42;;;;;;;5.40;3.10;;;;;;;-1.49;100.00;145895.34;5024191;28;20230;-53
2023/12/18 02:12:08;;;;;;;6.00;3.10;;;;;;;-1.49;100.00;145895.34;5009584;28;20349;-52
2023/12/18 02:14:35;;;;;;;6.00;3.20;;;;;;;-1.42;100.00;145911.41;5018204;28;20227;-53
2023/12/18 02:17:01;;;;;;;4.97;3.03;;;;;;;-1.42;100.00;145910.16;5015744;28;20222;-54
2023/12/18 02:19:31;;;;;;;5.93;3.30;;;;;;;-1.31;100.00;145936.09;5018068;28;20232;-53
2023/12/18 02:21:59;;;;;;;5.20;3.23;;;;;;;-1.24;100.00;145953.41;5014331;28;20222;-54
2023/12/18 02:24:27;;;;;;;5.90;3.40;;;;;;;-1.28;100.00;145943.53;5011910;28;20234;-52
2023/12/18 02:26:55;;;;;;;6.40;3.47;;;;;;;-1.23;100.00;145955.88;5017138;28;20576;-52
2023/12/18 02:29:21;;;;;;;7.00;3.67;;;;;;;-1.29;100.00;145942.25;5014264;28;20567;-53
2023/12/18 02:31:48;;;;;;;7.07;3.73;;;;;;;-1.31;100.00;145936.09;5019180;28;20237;-53
2023/12/18 02:34:14;;;;;;;7.53;4.03;;;;;;;-1.34;100.00;145929.91;5018301;28;20235;-53
2023/12/18 02:36:41;;;;;;;7.70;4.03;;;;;;;-1.30;100.00;145938.56;5022398;28;20232;-53
2023/12/18 02:39:08;;;;;;;7.47;4.50;;;;;;;-1.38;100.00;145920.03;5016512;28;20218;-53
2023/12/18 02:41:36;;;;;;;9.00;5.20;;;;;;;-1.39;100.00;145917.56;5021978;28;20639;-52
2023/12/18 02:44:02;;;;;;;8.27;4.97;;;;;;;-1.39;100.00;145918.81;5016505;28;20226;-52
2023/12/18 02:46:29;;;;;;;7.63;4.90;;;;;;;-1.38;100.00;145921.28;5020837;28;20221;-53
2023/12/18 02:48:55;;;;;;;8.30;5.20;;;;;;;-1.34;100.00;145929.91;5021530;28;20686;-53
2023/12/18 02:51:22;;;;;;;9.97;4.90;;;;;;;-1.29;100.00;145941.03;5017252;28;20232;-52
2023/12/18 02:53:49;;;;;;;9.63;4.60;;;;;;;-1.28;100.00;145944.72;5020234;28;20224;-51
2023/12/18 02:56:15;;;;;;;12.73;5.27;;;;;;;-1.27;100.00;145946.00;5019842;28;20556;-53
2023/12/18 02:58:43;;;;;;;6.47;3.80;;;;;;;-1.28;100.00;145944.72;5023106;28;20600;-53
2023/12/18 03:01:10;;;;;;;6.70;3.97;;;;;;;-1.27;100.00;145947.19;5017417;28;20227;-53
2023/12/18 03:03:36;;;;;;;10.10;3.73;;;;;;;-1.22;100.00;145958.34;5022145;28;20239;-52
2023/12/18 03:06:03;;;;;;;6.07;3.83;;;;;;;-1.25;100.00;145950.94;5018662;28;20222;-54
2023/12/18 03:08:30;;;;;;;7.03;3.63;;;;;;;-1.31;100.00;145936.09;5021971;28;20582;-53
2023/12/18 03:10:57;;;;;;;4.13;3.00;;;;;;;-1.35;100.00;145927.44;5018237;28;20242;-53
2023/12/18 03:13:23;;;;;;;6.47;3.50;;;;;;;-1.39;100.00;145917.56;5016528;28;20297;-53
2023/12/18 03:15:51;;;;;;;7.20;3.73;;;;;;;-1.42;100.00;145911.41;5020601;28;20290;-54
2023/12/18 03:18:18;;;;;;;5.70;3.83;;;;;;;-1.42;100.00;145911.41;5019866;28;20701;-52
2023/12/18 03:20:44;;;;;;;7.10;4.27;;;;;;;-1.37;100.00;145922.50;5021095;28;20349;-52
2023/12/18 03:23:11;;;;;;;11.27;4.13;;;;;;;-1.39;100.00;145917.56;5014899;28;20219;-54
2023/12/18 03:25:38;;;;;;;10.00;4.80;;;;;;;-1.45;100.00;145904.00;5018079;28;20228;-51
2023/12/18 03:28:05;;;;;;;9.60;5.37;;;;;;;-1.38;100.00;145920.03;5016007;28;20238;-53
2023/12/18 03:30:31;;;;;;;11.13;5.33;;;;;;;-1.40;100.00;145915.09;5018715;28;20228;-54
2023/12/18 03:32:59;;;;;;;6.40;4.73;;;;;;;-1.42;100.00;145910.16;5018984;28;20257;-51
2023/12/18 03:35:26;;;;;;;10.33;4.57;;;;;;;-1.45;100.00;145904.00;5015214;28;20306;-53
2023/12/18 03:37:53;;;;;;;8.87;4.40;;;;;;;-1.39;100.00;145917.56;5018793;28;20226;-52
2023/12/18 03:40:19;;;;;;;9.10;6.50;;;;;;;-1.40;100.00;145915.09;5017492;28;24745;-52
2023/12/18 03:42:46;;;;;;;8.60;5.60;;;;;;;-1.43;100.00;145907.69;5018737;28;20226;-53
2023/12/18 03:45:12;;;;;;;12.63;5.53;;;;;;;-1.46;100.00;145901.53;5016425;28;20230;-53
2023/12/18 03:47:39;;;;;;;9.87;4.40;;;;;;;-1.44;100.00;145905.22;5019217;28;20604;-54
2023/12/18 03:50:08;;;;;;;10.37;5.40;;;;;;;-1.48;100.00;145896.59;5018781;28;20270;-53
2023/12/18 03:52:35;;;;;;;9.83;5.30;;;;;;;-1.49;100.00;145894.13;5021806;28;20338;-54
2023/12/18 03:55:02;;;;;;;12.00;5.73;;;;;;;-1.54;100.00;145881.78;5018592;28;20220;-54
2023/12/18 03:57:28;;;;;;;8.87;5.13;;;;;;;-1.52;100.00;145887.91;5021378;28;20226;-53
2023/12/18 03:59:57;;;;;;;9.87;5.60;;;;;;;-1.50;100.00;145892.88;5020186;28;20705;-55
2023/12/18 04:05:08;;;;;;;10.53;5.10;;;;;;;-1.52;100.00;145886.72;5175339;23;20235;-57
2023/12/18 04:07:34;;;;;;;8.70;5.20;;;;;;;-1.59;100.00;145869.44;5005888;28;20709;-56
2023/12/18 04:10:01;;;;;;;9.90;5.50;;;;;;;-1.63;100.00;145860.81;5023283;28;20309;-54
2023/12/18 04:12:28;;;;;;;10.10;5.53;;;;;;;-1.64;100.00;145859.56;5025292;28;20241;-55
2023/12/18 04:14:54;;;;;;;9.43;5.40;;;;;;;-1.58;100.00;145873.09;5024765;28;20236;-55
2023/12/18 04:17:21;;;;;;;12.07;5.50;;;;;;;-1.58;100.00;145871.91;5021894;28;20234;-56
2023/12/18 04:19:47;;;;;;;9.30;5.57;;;;;;;-1.60;100.00;145866.97;5026029;28;20231;-55
2023/12/18 04:22:15;;;;;;;10.90;4.80;;;;;;;-1.63;100.00;145860.81;5023175;28;20706;-53
2023/12/18 04:24:42;;;;;;;13.83;5.70;;;;;;;-1.63;100.00;145862.00;5026156;28;20356;-55
2023/12/18 04:27:09;;;;;;;11.23;5.90;;;;;;;-1.64;100.00;145859.56;5022165;28;20587;-55
2023/12/18 04:29:37;;;;;;;9.57;5.50;;;;;;;-1.59;100.00;145870.63;5024358;28;20231;-55
2023/12/18 04:32:05;;;;;;;7.73;4.80;;;;;;;-1.60;100.00;145868.22;5226874;23;20233;-55
2023/12/18 04:34:31;;;;;;;7.67;4.40;;;;;;;-1.50;100.00;145891.66;5023662;28;20241;-52
2023/12/18 04:36:58;;;;;;;8.40;4.57;;;;;;;-1.54;100.00;145882.97;5025492;28;20628;-55
2023/12/18 04:39:26;;;;;;;11.90;4.83;;;;;;;-1.55;100.00;145880.50;5022577;28;20234;-56
2023/12/18 04:41:52;;;;;;;7.87;4.70;;;;;;;-1.52;100.00;145886.72;5023324;28;20246;-55
2023/12/18 04:44:19;;;;;;;7.87;4.40;;;;;;;-1.57;100.00;145875.56;5021686;28;20221;-54
2023/12/18 04:46:46;;;;;;;13.97;5.23;;;;;;;-1.60;100.00;145866.97;5023965;28;20237;-54
2023/12/18 04:49:13;;;;;;;8.10;5.07;;;;;;;-1.53;100.00;145885.47;5022132;28;20281;-56
2023/12/18 04:51:40;;;;;;;8.00;5.20;;;;;;;-1.56;100.00;145878.03;5024762;28;20323;-55
2023/12/18 04:54:06;;;;;;;12.03;5.33;;;;;;;-1.54;100.00;145881.78;5021484;28;20220;-52
2023/12/18 04:56:34;;;;;;;9.00;5.27;;;;;;;-1.64;100.00;145858.34;5025997;28;20688;-56
2023/12/18 04:59:01;;;;;;;8.30;5.17;;;;;;;-1.62;100.00;145863.28;5020688;28;20227;-54
2023/12/18 05:01:28;;;;;;;10.53;5.10;;;;;;;-1.61;100.00;145865.75;5023256;28;20243;-55
2023/12/18 05:03:54;;;;;;;8.60;5.13;;;;;;;-1.66;100.00;145853.41;5024397;28;20242;-54
2023/12/18 05:06:22;;;;;;;8.57;5.13;;;;;;;-1.72;100.00;145839.78;5012499;28;20229;-56
2023/12/18 05:08:49;;;;;;;10.87;5.03;;;;;;;-1.69;100.00;145847.19;5024526;28;20230;-54
2023/12/18 05:11:17;;;;;;;9.47;5.20;;;;;;;-1.70;100.00;145843.53;5020433;28;20229;-54
2023/12/18 05:13:46;;;;;;;10.53;5.73;;;;;;;-1.76;100.00;145828.72;5024565;28;20237;-57
2023/12/18 05:16:15;;;;;;;7.57;4.53;;;;;;;-1.85;100.00;145808.97;5023869;28;20222;-55
2023/12/18 05:18:42;;;;;;;8.37;5.20;;;;;;;-1.83;100.00;145812.63;5025350;28;20223;-56
2023/12/18 05:21:10;;;;;;;10.07;5.00;;;;;;;-1.70;100.00;145843.53;5022207;28;20258;-56
2023/12/18 05:23:37;;;;;;;9.30;4.97;;;;;;;-1.70;100.00;145843.53;5024803;28;20231;-56
2023/12/18 05:26:03;;;;;;;9.70;5.13;;;;;;;-1.75;100.00;145832.38;5021854;28;20246;-55
2023/12/18 05:28:30;;;;;;;9.00;4.90;;;;;;;-1.69;100.00;145846.00;5025498;28;20226;-57
2023/12/18 05:30:58;;;;;;;10.57;5.57;;;;;;;-1.71;100.00;145842.25;5023802;28;20235;-54
2023/12/18 05:33:25;;;;;;;10.13;5.50;;;;;;;-1.64;100.00;145858.34;5020180;28;20234;-57
2023/12/18 05:35:52;;;;;;;8.63;5.10;;;;;;;-1.61;100.00;145865.75;5024469;28;20251;-54
2023/12/18 05:38:19;;;;;;;9.07;5.43;;;;;;;-1.71;100.00;145841.06;5003707;28;20590;-53
2023/12/18 05:40:45;;;;;;;9.90;5.20;;;;;;;-1.71;100.00;145842.25;5019903;28;20587;-57
2023/12/18 05:43:12;;;;;;;7.63;4.50;;;;;;;-1.67;100.00;145850.94;5019698;28;20230;-54
2023/12/18 05:45:38;;;;;;;7.03;4.27;;;;;;;-1.70;100.00;145843.53;5023531;28;20760;-56
2023/12/18 05:48:07;;;;;;;8.90;4.70;;;;;;;-1.60;100.00;145866.97;5021075;28;20241;-56
2023/12/18 05:50:34;;;;;;;7.70;4.50;;;;;;;-1.63;100.00;145860.81;5005864;28;20246;-57
2023/12/18 05:53:00;;;;;;;9.47;5.47;;;;;;;-1.70;100.00;145844.72;5020933;28;20282;-55
2023/12/18 05:55:27;;;;;;;7.53;4.50;;;;;;;-1.65;100.00;145857.09;5023488;28;20238;-57
2023/12/18 05:57:54;;;;;;;7.50;4.43;;;;;;;-1.72;100.00;145839.78;5023579;28;20235;-55
2023/12/18 06:00:20;;;;;;;14.03;6.57;;;;;;;-1.74;100.00;145834.84;5019992;28;20242;-55
2023/12/18 06:02:47;;;;;;;18.03;11.23;;;;;;;-1.69;100.00;145846.00;5013392;28;20242;-52
2023/12/18 06:05:15;;;;;;;13.57;5.03;;;;;;;-1.70;100.00;145844.72;5018410;28;20229;-53
2023/12/18 06:07:43;;;;;;;6.73;4.50;;;;;;;-1.71;100.00;145841.06;5024131;28;20227;-53
2023/12/18 06:10:09;;;;;;;7.90;4.90;;;;;;;-1.75;100.00;145832.38;5019960;28;20232;-55
2023/12/18 06:12:38;;;;;;;8.10;4.60;;;;;;;-1.77;100.00;145827.44;5023286;28;20234;-55
2023/12/18 06:15:05;;;;;;;8.93;4.97;;;;;;;-1.74;100.00;145833.66;5019731;28;20739;-53
2023/12/18 06:17:32;;;;;;;9.63;5.60;;;;;;;-1.77;100.00;145827.44;5024519;28;20237;-55
2023/12/18 06:19:59;;;;;;;8.67;5.60;;;;;;;-1.80;100.00;145820.03;5022512;28;20231;-55
2023/12/18 06:22:26;;;;;;;10.70;5.53;;;;;;;-1.81;100.00;145818.84;5021106;28;20234;-55
2023/12/18 06:24:53;;;;;;;8.60;5.30;;;;;;;-1.71;100.00;145842.25;5023815;28;20223;-56
2023/12/18 06:27:20;;;;;;;10.40;5.93;;;;;;;-1.72;100.00;145838.59;5020687;28;22336;-54
2023/12/18 06:29:46;;;;;;;9.73;5.63;;;;;;;-1.70;100.00;145844.72;5023791;28;20231;-56
2023/12/18 06:32:14;;;;;;;11.97;6.40;;;;;;;-1.70;100.00;145843.53;5020735;28;20227;-56
2023/12/18 06:34:41;;;;;;;13.10;5.50;;;;;;;-1.70;100.00;145844.72;5023648;28;20227;-55
2023/12/18 06:37:07;;;;;;;11.43;6.90;;;;;;;-1.66;100.00;145853.41;5011023;28;20595;-53
2023/12/18 06:39:35;;;;;;;12.13;6.97;;;;;;;-1.70;100.00;145843.53;5024391;28;20457;-55
2023/12/18 06:42:02;;;;;;;10.30;6.27;;;;;;;-1.75;100.00;145832.38;5020858;28;20713;-55
2023/12/18 06:44:31;;;;;;;9.90;5.83;;;;;;;-1.80;100.00;145820.03;5006223;28;20650;-55
2023/12/18 06:46:57;;;;;;;17.13;8.10;;;;;;;-1.82;100.00;145815.09;5023207;28;20261;-56
2023/12/18 06:49:24;;;;;;;16.57;7.83;;;;;;;-1.84;100.00;145811.44;5021143;28;20237;-54
2023/12/18 06:51:51;;;;;;;14.23;7.57;;;;;;;-1.82;100.00;145815.09;5023720;28;20265;-53
2023/12/18 06:54:17;;;;;;;14.33;7.40;;;;;;;-1.78;100.00;145824.97;5021282;28;20237;-54
2023/12/18 06:56:46;;;;;;;12.60;6.47;;;;;;;-1.79;100.00;145822.50;5024157;28;20230;-56
2023/12/18 06:59:13;;;;;;;10.17;6.03;;;;;;;-1.81;100.00;145818.84;5020889;28;20225;-56
2023/12/18 07:01:39;;;;;;;10.13;6.13;;;;;;;-1.77;100.00;145827.44;5021821;28;20301;-54
2023/12/18 07:04:06;;;;;;;0.00;0.00;;;;;;;-1.77;100.00;145827.44;5019200;28;20303;-54
2023/12/18 07:06:33;;;;;;;0.00;0.00;;;;;;;-1.79;100.00;145822.50;5022718;28;20238;-55
2023/12/18 07:09:00;;;;;;;0.00;0.00;;;;;;;-1.74;100.00;145834.84;5023052;28;20584;-53
2023/12/18 07:11:26;;;;;;;0.00;0.00;;;;;;;-1.75;100.00;145832.38;5020206;28;20227;-55
2023/12/18 07:13:54;;;;;;;0.00;0.00;;;;;;;-1.80;100.00;145821.31;5023117;28;20710;-54
2023/12/18 07:16:21;;;;;;;0.00;0.00;;;;;;;-1.82;100.00;145816.38;5023274;28;20245;-54
2023/12/18 07:18:48;;;;;;;0.00;0.00;;;;;;;-1.81;100.00;145818.84;5026014;28;20246;-56
2023/12/18 07:21:15;;;;;;;0.00;0.00;;;;;;;-1.85;100.00;145808.97;5024955;28;20230;-54
2023/12/18 07:23:43;;;;;;;0.00;0.00;;;;;;;-1.76;100.00;145829.91;5026930;28;20231;-55
2023/12/18 07:26:12;;;;;;;0.00;0.00;;;;;;;-1.62;100.00;145863.28;5023782;28;20229;-55
2023/12/18 07:28:39;;;;;;;0.00;0.00;;;;;;;-1.56;100.00;145878.03;5026125;28;20320;-54
2023/12/18 07:31:08;;;;;;;0.00;0.00;;;;;;;-1.52;100.00;145887.91;5022421;28;20228;-52
2023/12/18 07:33:35;;;;;;;0.00;0.00;;;;;;;-1.44;100.00;145906.47;5024891;28;20229;-54
2023/12/18 07:36:02;;;;;;;0.00;0.00;;;;;;;-1.46;100.00;145901.53;5023383;28;20235;-53
2023/12/18 07:38:29;;;;;;;0.00;0.00;;;;;;;-1.49;100.00;145895.34;5026655;28;20223;-52
2023/12/18 07:40:56;;;;;;;0.00;0.00;;;;;;;-1.55;100.00;145880.50;5026709;28;20239;-55
2023/12/18 07:43:22;;;;;;;0.00;0.00;;;;;;;-1.60;100.00;145866.97;5023837;28;20228;-54
2023/12/18 07:45:49;;;;;;;0.00;0.00;;;;;;;-1.60;100.00;145866.97;5025332;28;20242;-52
2023/12/18 07:48:19;;;;;;;0.00;0.00;;;;;;;-1.58;100.00;145871.91;5024468;28;20239;-53
2023/12/18 07:50:46;;;;;;;0.00;0.00;;;;;;;-1.57;100.00;145874.38;5026133;28;20262;-55
2023/12/18 07:53:13;;;;;;;0.00;0.00;;;;;;;-1.54;100.00;145881.78;5023942;28;20693;-53
2023/12/18 07:55:40;;;;;;;0.00;0.00;;;;;;;-1.55;100.00;145879.31;5026187;28;20589;-53
2023/12/18 07:58:06;;;;;;;0.00;0.00;;;;;;;-1.54;100.00;145881.78;5022675;28;21131;-52
2023/12/18 08:00:33;;;;;;;0.00;0.00;;;;;;;-1.49;100.00;145894.13;5025476;28;20227;-54
2023/12/18 08:03:01;;;;;;;0.00;0.00;;;;;;;-1.47;100.00;145899.06;5025741;28;20312;-52
2023/12/18 08:05:29;;;;;;;0.00;0.00;;;;;;;-1.45;100.00;145904.00;5022856;28;20234;-52
2023/12/18 08:07:56;;;;;;;0.00;0.00;;;;;;;-1.43;100.00;145908.94;5025456;28;20230;-54
2023/12/18 08:10:23;;;;;;;0.00;0.00;;;;;;;-1.37;100.00;145922.50;5022375;28;20549;-54
2023/12/18 08:12:49;;;;;;;0.00;0.00;;;;;;;-1.39;100.00;145918.81;5025415;28;20238;-54
2023/12/18 08:15:16;;;;;;;0.00;0.00;;;;;;;-1.36;100.00;145924.97;5023644;28;20214;-54
2023/12/18 08:17:42;;;;;;;0.00;0.00;;;;;;;-1.31;100.00;145936.09;5026311;28;20229;-54
2023/12/18 08:20:11;;;;;;;0.00;0.00;;;;;;;-1.28;100.00;145943.53;5023377;28;20227;-52
2023/12/18 08:22:39;;;;;;;0.00;0.00;;;;;;;-1.22;100.00;145959.56;5026404;28;20231;-55
2023/12/18 08:25:07;;;;;;;0.00;0.00;;;;;;;-1.26;100.00;145948.47;5022960;28;20260;-53
2023/12/18 08:27:34;;;;;;;0.00;0.00;;;;;;;-1.23;100.00;145955.88;5024652;28;20239;-53
2023/12/18 08:30:00;;;;;;;0.00;0.00;;;;;;;-1.22;100.00;145958.34;5021443;28;20705;-55
2023/12/18 08:32:27;;;;;;;0.00;0.00;;;;;;;-1.25;100.00;145950.94;5025599;28;20235;-52
2023/12/18 08:34:54;;;;;;;0.00;0.00;;;;;;;-1.26;100.00;145949.66;5023399;28;20234;-55
2023/12/18 08:37:20;;;;;;;0.00;0.00;;;;;;;-1.17;100.00;145969.44;5023137;28;20229;-53
2023/12/18 08:39:48;;;;;;;0.00;0.00;;;;;;;-1.14;100.00;145978.09;5025633;28;20685;-55
2023/12/18 08:42:15;;;;;;;0.00;0.00;;;;;;;-1.15;100.00;145974.38;5004341;28;20224;-53
2023/12/18 08:44:41;;;;;;;0.00;0.00;;;;;;;-1.12;100.00;145981.78;5025628;28;20238;-55
2023/12/18 08:47:08;;;;;;;0.00;0.00;;;;;;;-1.07;100.00;145995.38;5016506;28;21017;-54
2023/12/18 08:49:35;;;;;;;0.00;0.00;;;;;;;-1.03;100.00;146004.00;5023731;28;20239;-55
2023/12/18 08:52:01;;;;;;;0.00;0.00;;;;;;;-0.95;100.00;146022.53;5021491;28;20734;-55
2023/12/18 08:54:32;;;;;;;0.00;0.00;;;;;;;-0.88;100.00;146039.81;5020294;28;20234;-55
2023/12/18 08:57:00;;;;;;;0.00;0.00;;;;;;;-0.84;100.00;146048.50;5020880;28;20234;-53
2023/12/18 08:59:26;;;;;;;0.00;0.00;;;;;;;-0.81;100.00;146057.09;5018374;28;20230;-54
2023/12/18 09:01:53;;;;;;;0.00;0.00;;;;;;;-0.78;100.00;146064.53;5022927;28;20234;-54
2023/12/18 09:04:20;;;;;;;0.00;0.00;;;;;;;-0.78;100.00;146064.53;5021798;28;20254;-54
2023/12/18 09:06:46;;;;;;;0.00;0.00;;;;;;;-0.72;100.00;146076.88;5024443;28;20233;-54
2023/12/18 09:09:13;;;;;;;0.00;0.00;;;;;;;-0.60;100.00;146106.53;5022788;28;20216;-53
2023/12/18 09:11:40;;;;;;;0.00;0.00;;;;;;;-0.54;100.00;146121.34;5024780;28;20253;-56
2023/12/18 09:14:08;;;;;;;0.00;0.00;;;;;;;-0.47;100.00;146137.41;5020620;28;20234;-56
2023/12/18 09:16:35;;;;;;;0.00;0.00;;;;;;;-0.42;100.00;146148.53;5023315;28;20231;-53
2023/12/18 09:19:02;;;;;;;0.00;0.00;;;;;;;-0.31;100.00;146175.75;5021825;28;20234;-56
2023/12/18 09:21:28;;;;;;;0.00;0.00;;;;;;;-0.35;100.00;146167.06;5024504;28;20230;-56
2023/12/18 09:23:56;;;;;;;0.00;0.00;;;;;;;-0.25;100.00;146189.31;5023629;28;20338;-54
2023/12/18 09:26:23;;;;;;;0.00;0.00;;;;;;;-0.21;100.00;146200.44;5021389;28;20250;-53
2023/12/18 09:28:49;;;;;;;0.00;0.00;;;;;;;-0.13;100.00;146218.97;5024551;28;20571;-56
2023/12/18 09:31:18;;;;;;;0.00;0.00;;;;;;;-0.14;100.00;146215.28;5021680;28;20235;-55
2023/12/18 09:33:44;;;;;;;0.00;0.00;;;;;;;-0.08;100.00;146231.34;5025136;28;20267;-56
2023/12/18 09:36:11;;;;;;;0.00;0.00;;;;;;;0.02;100.00;146253.59;5021598;28;21147;-55
2023/12/18 09:38:38;;;;;;;0.00;0.00;;;;;;;0.05;100.00;146262.22;5024167;28;20227;-56
2023/12/18 09:41:04;;;;;;;0.00;0.00;;;;;;;0.14;100.00;146283.25;5021164;28;20237;-53
2023/12/18 09:43:31;;;;;;;0.00;0.00;;;;;;;0.22;100.00;146301.78;5024211;28;20242;-56
2023/12/18 09:45:58;;;;;;;0.00;0.00;;;;;;;0.34;100.00;146331.44;5024180;28;20237;-53
2023/12/18 09:48:26;;;;;;;0.00;0.00;;;;;;;0.47;100.00;146361.13;5021986;28;20254;-54
2023/12/18 09:50:54;;;;;;;0.00;0.00;;;;;;;0.58;100.00;146388.34;5023483;28;20238;-53
2023/12/18 09:53:22;;;;;;;0.00;0.00;;;;;;;0.68;100.00;146413.06;5021144;28;20242;-54
2023/12/18 09:55:51;;;;;;;0.00;0.00;;;;;;;0.73;100.00;146424.19;5022944;28;20638;-56
2023/12/18 09:58:19;;;;;;;0.00;0.00;;;;;;;0.85;100.00;146453.88;5019265;28;20220;-54
2023/12/18 10:00:47;;;;;;;0.00;0.00;;;;;;;0.93;100.00;146471.19;5022771;28;20223;-56
2023/12/18 10:03:16;;;;;;;0.00;0.00;;;;;;;0.97;100.00;146482.34;5021311;28;20547;-55
2023/12/18 10:05:45;;;;;;;0.00;0.00;;;;;;;1.04;100.00;146498.41;5023493;28;20760;-56
2023/12/18 10:08:12;;;;;;;0.00;0.00;;;;;;;1.06;100.00;146503.34;5021745;28;20705;-55
2023/12/18 10:10:39;;;;;;;0.00;0.00;;;;;;;1.10;100.00;146513.25;5023534;28;20297;-56
2023/12/18 10:13:07;;;;;;;0.00;0.00;;;;;;;1.16;100.00;146528.09;5020367;28;20239;-55
2023/12/18 10:15:35;;;;;;;0.00;0.00;;;;;;;1.22;100.00;146540.47;5023943;28;20228;-54
2023/12/18 10:18:03;;;;;;;0.00;0.00;;;;;;;1.25;100.00;146549.13;5019198;28;20259;-55
2023/12/18 10:20:30;;;;;;;0.00;0.00;;;;;;;1.35;100.00;146571.38;5024027;28;20305;-54
2023/12/18 10:23:00;;;;;;;0.00;0.00;;;;;;;1.38;100.00;146578.81;5022670;28;20293;-53
2023/12/18 10:25:27;;;;;;;0.00;0.00;;;;;;;1.48;100.00;146603.56;5021651;28;20230;-56
2023/12/18 10:27:55;;;;;;;0.00;0.00;;;;;;;1.56;100.00;146622.16;5024267;28;20641;-53
2023/12/18 10:30:25;;;;;;;0.00;0.00;;;;;;;1.65;100.00;146644.38;5020844;28;20258;-56
2023/12/18 10:32:52;;;;;;;0.00;0.00;;;;;;;1.72;100.00;146661.72;5023427;28;20243;-56
2023/12/18 10:35:18;;;;;;;0.00;0.00;;;;;;;1.85;100.00;146691.41;5019490;28;20216;-56
2023/12/18 10:37:49;;;;;;;0.00;0.00;;;;;;;1.90;100.00;146703.81;5021679;28;20239;-56
2023/12/18 10:40:19;;;;;;;0.00;0.00;;;;;;;1.98;100.00;146722.38;5019981;28;20230;-55
2023/12/18 10:42:52;;;;;;;0.00;0.00;;;;;;;2.01;100.00;146729.81;5008604;28;20231;-54
2023/12/18 10:45:20;;;;;;;0.00;0.00;;;;;;;2.03;100.00;146736.00;5021201;28;20235;-55
2023/12/18 10:47:48;;;;;;;0.00;0.00;;;;;;;2.11;100.00;146754.59;5023896;28;20583;-56
2023/12/18 10:50:16;;;;;;;0.00;0.00;;;;;;;2.20;100.00;146776.81;5019567;28;20219;-56
2023/12/18 10:52:47;;;;;;;0.00;0.00;;;;;;;2.30;100.00;146799.13;5027581;28;20239;-55
2023/12/18 10:55:17;;;;;;;0.00;0.00;;;;;;;2.41;100.00;146825.16;5024224;28;20219;-54
2023/12/18 10:57:45;;;;;;;0.10;0.10;;;;;;;2.40;100.00;146823.88;5026754;28;20242;-56
2023/12/18 11:00:15;;;;;;;0.00;0.00;;;;;;;2.50;100.00;146848.66;5023017;28;20231;-54
2023/12/18 11:02:43;;;;;;;0.00;0.00;;;;;;;2.62;100.00;146875.91;5026879;28;20634;-56
2023/12/18 11:05:12;;;;;;;0.00;0.00;;;;;;;2.72;100.00;146900.69;5023797;28;20235;-53
2023/12/18 11:07:39;;;;;;;0.00;0.00;;;;;;;2.80;100.00;146919.25;5027116;28;20220;-55
2023/12/18 11:10:07;;;;;;;0.00;0.00;;;;;;;2.87;100.00;146935.38;5022845;28;20230;-56
2023/12/18 11:12:38;;;;;;;0.00;0.00;;;;;;;2.97;100.00;146958.88;5024752;28;20244;-54
2023/12/18 11:15:12;;;;;;;0.00;0.00;;;;;;;3.04;100.00;146977.50;5023819;28;20631;-56
2023/12/18 11:17:45;;;;;;;0.00;0.00;;;;;;;3.13;100.00;146997.31;5027346;28;20229;-56
2023/12/18 11:20:24;;;;;;;0.00;0.00;;;;;;;3.21;100.00;147017.09;5021225;28;20223;-54
2023/12/18 11:22:55;;;;;;;0.00;0.00;;;;;;;3.25;100.00;147027.00;5025966;28;20330;-55